Queen Of Alberni — CZ8100 — position and weather

sailwx.info

Track history (hours):
 
Tides and Currents Weather Stations Pressure Air Temp Water Temp Dewpoint Dewpoint Depression Visibility Wind Speed Wind Dir Waves Ship Positions

Queen Of Alberni

Last reported at 2018-Feb-20 21:30 UTC. Time now 2018-Feb-20 21:55 UTC.
Position N 49°09' W 123°37'.

Length 134 m; draft 5.8 m.

Type: Passenger vessel. MMSI: 316001245.

Date/timePositionNaut miles runAvg speedWind from/ knotsBaromVisibWave heightAir tempDewpointWater temp
2018-Feb-20 21:30N 49°09' W 123°37'10 6.6
2018-Feb-20 19:58N 49°13' W 123°52'918.4
2018-Feb-20 19:29N 49°10' W 123°38'919.2
2018-Feb-20 18:59N 49°06' W 123°26'919.1
2018-Feb-20 18:30N 49°01' W 123°14'4 7.6
2018-Feb-20 18:00N 49°00' W 123°08'3 5.2
2018-Feb-20 17:30N 49°00' W 123°12'1019.0
2018-Feb-20 17:00N 49°04' W 123°25'1019.3
2018-Feb-20 16:30N 49°10' W 123°37'1018.9
2018-Feb-20 16:00N 49°13' W 123°51'1 1.5
2018-Feb-20 15:08N 49°12' W 123°52'320.0
2018-Feb-20 14:59N 49°13' W 123°48'1019.1
2018-Feb-20 14:28N 49°09' W 123°35'1019.4
2018-Feb-20 13:59N 49°05' W 123°22'919.2
2018-Feb-20 13:30N 49°00' W 123°10'1 2.5
2018-Feb-20 13:01N 49°00' W 123°08'0 0.0
2018-Feb-20 12:31N 49°00' W 123°08'0 0.0
2018-Feb-20 11:57N 49°00' W 123°08'0 0.0
2018-Feb-20 11:21N 49°00' W 123°08'0 0.0
2018-Feb-20 10:57N 49°00' W 123°08'0 0.0
2018-Feb-20 10:21N 49°00' W 123°08'0 0.0
2018-Feb-20 09:57N 49°00' W 123°08'0 0.0
2018-Feb-20 09:27N 49°00' W 123°08'0 0.0
2018-Feb-20 08:48N 49°00' W 123°08'2 5.8
2018-Feb-20 08:30N 48°60' W 123°10'919.2
2018-Feb-20 08:01N 49°03' W 123°24'1019.7
2018-Feb-20 07:29N 49°09' W 123°36'919.1
2018-Feb-20 07:00N 49°13' W 123°50'4 7.5
2018-Feb-20 06:28N 49°10' W 123°53'4 8.4
2018-Feb-20 05:57N 49°13' W 123°49'818.6
2018-Feb-20 05:30N 49°10' W 123°37'1018.9
2018-Feb-20 05:00N 49°06' W 123°24'918.9
2018-Feb-20 04:30N 49°01' W 123°12'3 5.6
2018-Feb-20 04:00N 49°00' W 123°08'4 8.0
2018-Feb-20 03:31N 49°00' W 123°14'1018.9
2018-Feb-20 02:58N 49°05' W 123°28'919.2
2018-Feb-20 02:31N 49°10' W 123°39'916.0
2018-Feb-20 01:56N 49°12' W 123°52'0 0.1
2018-Feb-20 01:08N 49°12' W 123°52'414.4
2018-Feb-20 00:52N 49°13' W 123°47'718.6
2018-Feb-20 00:30N 49°10' W 123°37'1018.6
2018-Feb-20 00:00N 49°06' W 123°24'918.5
2018-Feb-19 23:30N 49°01' W 123°13'3 6.2
2018-Feb-19 22:59N 49°00' W 123°08'3 5.5
2018-Feb-19 22:29N 48°60' W 123°12'919.1
2018-Feb-19 22:00N 49°03' W 123°25'1019.9
2018-Feb-19 21:30N 49°09' W 123°37'11 7.6
2018-Feb-19 20:06N 49°11' W 123°53'415.5
2018-Feb-19 19:50N 49°13' W 123°48'819.4
2018-Feb-19 19:26N 49°10' W 123°37'819.2
2018-Feb-19 19:00N 49°06' W 123°25'1019.1
2018-Feb-19 18:30N 49°01' W 123°14'4 7.3
2018-Feb-19 18:00N 49°00' W 123°08'3 5.0
2018-Feb-19 17:30N 48°60' W 123°12'919.3
2018-Feb-19 17:01N 49°04' W 123°25'1019.2
2018-Feb-19 16:30N 49°09' W 123°37'11 7.4
2018-Feb-19 15:05N 49°10' W 123°53'218.9
2018-Feb-19 14:58N 49°12' W 123°52'918.6
2018-Feb-19 14:30N 49°11' W 123°39'1019.8
2018-Feb-19 14:00N 49°06' W 123°25'1019.5
2018-Feb-19 13:30N 49°01' W 123°13'4 6.9
2018-Feb-19 13:00N 49°00' W 123°08'0 0.0
2018-Feb-19 12:30N 49°00' W 123°08'0 0.0
2018-Feb-19 11:47N 49°00' W 123°08'0 0.0
2018-Feb-19 11:29N 49°00' W 123°08'0 0.0
2018-Feb-19 10:54N 49°00' W 123°08'0 0.0
2018-Feb-19 10:23N 49°00' W 123°08'0 0.0
2018-Feb-19 09:54N 49°00' W 123°08'0 0.0
2018-Feb-19 09:18N 49°00' W 123°08'0 0.0
2018-Feb-19 08:59N 49°00' W 123°08'1 1.2
2018-Feb-19 08:30N 49°00' W 123°09'1019.8
2018-Feb-19 08:00N 49°03' W 123°23'1020.0
2018-Feb-19 07:30N 49°09' W 123°36'12 8.7
2018-Feb-19 06:10N 49°10' W 123°53'415.9
2018-Feb-19 05:55N 49°13' W 123°49'818.2
2018-Feb-19 05:27N 49°11' W 123°37'818.6
2018-Feb-19 05:00N 49°06' W 123°27'918.6
2018-Feb-19 04:30N 49°01' W 123°14'4 8.6
2018-Feb-19 04:00N 49°00' W 123°08'3 5.4
2018-Feb-19 03:30N 49°00' W 123°12'918.7
2018-Feb-19 03:00N 49°04' W 123°25'2010.3
2018-Feb-19 01:05N 49°11' W 123°53'417.1
2018-Feb-19 00:49N 49°13' W 123°47'720.8
2018-Feb-19 00:30N 49°10' W 123°37'1020.3
2018-Feb-19 00:00N 49°05' W 123°24'1020.2
2018-Feb-18 23:30N 49°00' W 123°10'1 2.9
2018-Feb-18 23:00N 49°00' W 123°08'613.0
2018-Feb-18 22:30N 49°01' W 123°18'612.4
2018-Feb-18 22:00N 49°05' W 123°25'918.5
2018-Feb-18 21:31N 49°09' W 123°38'10 7.6
2018-Feb-18 20:08N 49°11' W 123°53'317.9
2018-Feb-18 19:57N 49°13' W 123°49'918.8
2018-Feb-18 19:30N 49°10' W 123°37'1019.1
2018-Feb-18 18:58N 49°05' W 123°24'919.0
2018-Feb-18 18:30N 48°60' W 123°13'3 6.2
2018-Feb-18 17:59N 49°00' W 123°08'0 0.0
2018-Feb-18 17:30N 49°00' W 123°08'0 0.0
2018-Feb-18 16:42N 49°00' W 123°08'0 0.0
2018-Feb-18 16:12N 49°00' W 123°08'0 0.0
2018-Feb-18 15:57N 49°00' W 123°08'0 0.0
2018-Feb-18 15:24N 49°00' W 123°08'0 0.0
2018-Feb-18 14:48N 49°00' W 123°08'0 0.0
2018-Feb-18 14:27N 49°00' W 123°08'0 0.0
2018-Feb-18 14:00N 49°00' W 123°08'0 0.0
2018-Feb-18 13:30N 49°00' W 123°08'0 0.0
2018-Feb-18 12:57N 49°00' W 123°08'0 0.0
2018-Feb-18 12:30N 49°00' W 123°08'0 0.0
2018-Feb-18 12:00N 49°00' W 123°08'0 0.0
2018-Feb-18 11:30N 49°00' W 123°08'0 0.0
2018-Feb-18 11:00N 49°00' W 123°08'0 0.0
2018-Feb-18 10:30N 49°00' W 123°08'0 0.0
2018-Feb-18 10:00N 49°00' W 123°08'0 0.0
2018-Feb-18 09:27N 49°00' W 123°08'0 0.0
2018-Feb-18 09:00N 49°00' W 123°08'0 0.0
2018-Feb-18 08:27N 49°00' W 123°08'0 0.0
2018-Feb-18 08:00N 49°00' W 123°08'0 0.0
2018-Feb-18 07:27N 49°00' W 123°08'0 0.0
2018-Feb-18 07:00N 49°00' W 123°08'0 0.0
2018-Feb-18 06:27N 49°00' W 123°08'0 0.0
2018-Feb-18 06:00N 49°00' W 123°08'0 0.0
2018-Feb-18 05:03N 49°00' W 123°08'0 0.0
2018-Feb-18 04:51N 49°00' W 123°08'0 0.0
2018-Feb-18 04:15N 49°00' W 123°08'0 0.0
2018-Feb-18 03:57N 49°00' W 123°08'3 6.2
2018-Feb-18 03:31N 48°60' W 123°12'1019.9
2018-Feb-18 03:00N 49°04' W 123°26'1020.1
2018-Feb-18 02:29N 49°10' W 123°39'918.7
2018-Feb-18 02:00N 49°12' W 123°53'2 2.2
2018-Feb-18 01:14N 49°10' W 123°53'313.1
2018-Feb-18 01:00N 49°13' W 123°50'1019.1
2018-Feb-18 00:30N 49°10' W 123°36'1019.5
2018-Feb-18 00:01N 49°05' W 123°23'1019.3
2018-Feb-17 23:31N 49°00' W 123°10'2 3.4
2018-Feb-17 23:00N 49°00' W 123°08'3 5.1
2018-Feb-17 22:30N 49°00' W 123°12'918.5
2018-Feb-17 22:00N 49°04' W 123°25'1019.1
2018-Feb-17 21:27N 49°10' W 123°38'1017.6
2018-Feb-17 20:53N 49°12' W 123°53'2 3.0
2018-Feb-17 20:10N 49°10' W 123°53'515.5
2018-Feb-17 19:52N 49°13' W 123°48'818.7
2018-Feb-17 19:27N 49°11' W 123°37'818.8
2018-Feb-17 19:00N 49°06' W 123°26'918.7
2018-Feb-17 18:30N 49°01' W 123°14'4 8.4
2018-Feb-17 18:00N 49°00' W 123°08'4 7.6
2018-Feb-17 17:30N 48°60' W 123°14'918.2
2018-Feb-17 17:00N 49°04' W 123°26'1018.8
2018-Feb-17 16:28N 49°10' W 123°39'10 7.5
2018-Feb-17 15:10N 49°10' W 123°53'415.7
2018-Feb-17 14:53N 49°13' W 123°48'718.5
2018-Feb-17 14:29N 49°11' W 123°37'918.6
2018-Feb-17 14:00N 49°06' W 123°25'918.6
2018-Feb-17 13:31N 49°01' W 123°14'4 7.7
2018-Feb-17 13:00N 49°00' W 123°08'0 0.0
2018-Feb-17 12:30N 49°00' W 123°08'0 0.0
2018-Feb-17 11:59N 49°00' W 123°08'0 0.0
2018-Feb-17 11:29N 49°00' W 123°08'0 0.0
2018-Feb-17 10:59N 49°00' W 123°08'0 0.0
2018-Feb-17 10:29N 49°00' W 123°08'0 0.0
2018-Feb-17 09:59N 49°00' W 123°08'0 0.0
2018-Feb-17 09:26N 49°00' W 123°08'0 0.0
2018-Feb-17 08:41N 49°00' W 123°08'1 3.0
2018-Feb-17 08:30N 49°00' W 123°09'1019.6
2018-Feb-17 08:00N 49°03' W 123°23'1020.0
2018-Feb-17 07:30N 49°09' W 123°36'1218.9
2018-Feb-17 06:53N 49°12' W 123°53'2 2.2
2018-Feb-17 06:09N 49°10' W 123°53'416.2
2018-Feb-17 05:53N 49°13' W 123°48'818.9
2018-Feb-17 05:28N 49°10' W 123°37'919.0
2018-Feb-17 04:59N 49°06' W 123°25'918.5
2018-Feb-17 04:30N 49°01' W 123°13'4 7.4
2018-Feb-17 04:00N 49°00' W 123°08'2 4.8
2018-Feb-17 03:31N 48°60' W 123°12'1020.1
2018-Feb-17 03:00N 49°04' W 123°26'1220.1
2018-Feb-17 02:25N 49°11' W 123°40'6 4.7
2018-Feb-17 01:03N 49°13' W 123°50'119.1
2018-Feb-17 00:59N 49°13' W 123°48'919.2
2018-Feb-17 00:30N 49°09' W 123°35'1019.3
2018-Feb-17 00:00N 49°05' W 123°22'1018.8
2018-Feb-16 23:30N 49°00' W 123°09'1 1.5
2018-Feb-16 22:59N 49°00' W 123°08'3 6.0
2018-Feb-16 22:31N 48°60' W 123°12'1018.9
2018-Feb-16 22:00N 49°03' W 123°26'1019.5
2018-Feb-16 21:30N 49°09' W 123°38'10 7.5
2018-Feb-16 20:08N 49°10' W 123°53'218.0
2018-Feb-16 20:00N 49°12' W 123°52'918.1
2018-Feb-16 19:30N 49°11' W 123°38'919.1
2018-Feb-16 19:00N 49°06' W 123°26'919.0
2018-Feb-16 18:30N 49°01' W 123°14'4 7.7
2018-Feb-16 18:00N 49°00' W 123°08'2 4.6
2018-Feb-16 17:30N 48°60' W 123°11'918.6
2018-Feb-16 17:00N 49°03' W 123°25'1019.1
2018-Feb-16 16:30N 49°09' W 123°36'1117.8
2018-Feb-16 15:53N 49°12' W 123°53'2 2.8
2018-Feb-16 15:09N 49°10' W 123°53'515.8
2018-Feb-16 14:51N 49°13' W 123°48'719.9
2018-Feb-16 14:29N 49°11' W 123°38'919.9
2018-Feb-16 14:00N 49°06' W 123°25'1019.8
2018-Feb-16 13:30N 49°01' W 123°12'3 5.7
2018-Feb-16 13:00N 49°00' W 123°08'0 0.0
2018-Feb-16 12:30N 49°00' W 123°08'0 0.0
2018-Feb-16 12:00N 49°00' W 123°08'0 0.0
2018-Feb-16 11:30N 49°00' W 123°08'0 0.0
2018-Feb-16 11:00N 49°00' W 123°08'0 0.0
2018-Feb-16 10:30N 49°00' W 123°08'0 0.0
2018-Feb-16 09:54N 49°00' W 123°08'0 0.0
2018-Feb-16 09:30N 49°00' W 123°08'0 0.0
2018-Feb-16 08:57N 49°00' W 123°08'2 3.5
2018-Feb-16 08:30N 48°60' W 123°10'1019.9
2018-Feb-16 08:00N 49°03' W 123°24'1119.7
2018-Feb-16 07:28N 49°09' W 123°37'10 8.1
2018-Feb-16 06:11N 49°10' W 123°53'416.6
2018-Feb-16 05:55N 49°13' W 123°49'818.3
2018-Feb-16 05:29N 49°10' W 123°37'918.7
2018-Feb-16 05:01N 49°06' W 123°25'918.5
2018-Feb-16 04:30N 49°01' W 123°14'4 7.8
2018-Feb-16 04:00N 49°00' W 123°08'4 7.8
2018-Feb-16 03:30N 48°60' W 123°14'918.2
2018-Feb-16 03:00N 49°04' W 123°26'1018.6
2018-Feb-16 02:29N 49°10' W 123°38'10 6.9
2018-Feb-16 01:04N 49°12' W 123°53'318.6
2018-Feb-16 00:54N 49°13' W 123°48'818.7
2018-Feb-16 00:28N 49°10' W 123°37'918.7
2018-Feb-16 00:00N 49°06' W 123°25'918.5
2018-Feb-15 23:30N 49°01' W 123°13'3 7.0
2018-Feb-15 23:00N 49°00' W 123°08'2 4.7
2018-Feb-15 22:30N 48°60' W 123°11'1018.8
2018-Feb-15 22:00N 49°03' W 123°25'1019.2
2018-Feb-15 21:30N 49°09' W 123°37'11 7.1
2018-Feb-15 20:01N 49°12' W 123°52'319.0
2018-Feb-15 19:52N 49°13' W 123°48'718.9
2018-Feb-15 19:29N 49°10' W 123°39'919.1
2018-Feb-15 19:00N 49°06' W 123°26'918.7
2018-Feb-15 18:30N 49°01' W 123°14'4 7.7
2018-Feb-15 18:00N 49°00' W 123°08'3 6.1
2018-Feb-15 17:30N 48°59' W 123°13'1019.3
2018-Feb-15 17:00N 49°04' W 123°26'918.9
2018-Feb-15 16:30N 49°09' W 123°37'11 7.6
2018-Feb-15 15:06N 49°11' W 123°53'418.2
2018-Feb-15 14:54N 49°13' W 123°49'819.5
2018-Feb-15 14:30N 49°11' W 123°37'919.2
2018-Feb-15 14:00N 49°06' W 123°25'1019.4
2018-Feb-15 13:30N 49°00' W 123°13'3 6.2
2018-Feb-15 13:00N 49°00' W 123°08'0 0.0
2018-Feb-15 12:30N 49°00' W 123°08'0 0.0
2018-Feb-15 11:55N 49°00' W 123°08'0 0.0
2018-Feb-15 11:25N 49°00' W 123°08'0 0.0
2018-Feb-15 10:55N 49°00' W 123°08'0 0.0
2018-Feb-15 10:25N 49°00' W 123°08'0 0.0
2018-Feb-15 09:55N 49°00' W 123°08'0 0.0
2018-Feb-15 09:19N 49°00' W 123°08'0 0.0
2018-Feb-15 08:55N 49°00' W 123°08'2 5.0
2018-Feb-15 08:30N 48°59' W 123°11'919.1
2018-Feb-15 08:01N 49°03' W 123°24'1019.7
2018-Feb-15 07:30N 49°09' W 123°36'11 8.2
2018-Feb-15 06:08N 49°12' W 123°53'417.5
2018-Feb-15 05:54N 49°13' W 123°48'818.3
2018-Feb-15 05:27N 49°10' W 123°36'818.3
2018-Feb-15 05:00N 49°06' W 123°25'918.3
2018-Feb-15 04:30N 49°01' W 123°14'4 7.4
2018-Feb-15 04:00N 49°00' W 123°08'3 5.7
2018-Feb-15 03:30N 48°60' W 123°12'918.5
2018-Feb-15 03:01N 49°04' W 123°25'1019.1
2018-Feb-15 02:31N 49°09' W 123°37'11 7.2
2018-Feb-15 01:02N 49°12' W 123°53'818.2
2018-Feb-15 00:34N 49°11' W 123°40'219.7
2018-Feb-15 00:29N 49°10' W 123°37'919.7
2018-Feb-15 00:00N 49°06' W 123°25'918.8
2018-Feb-14 23:30N 49°01' W 123°13'3 6.3
2018-Feb-14 23:00N 49°00' W 123°08'2 4.9
2018-Feb-14 22:30N 48°60' W 123°12'1018.9
2018-Feb-14 22:00N 49°04' W 123°25'1119.3
2018-Feb-14 21:26N 49°10' W 123°39'10 7.4
2018-Feb-14 20:08N 49°10' W 123°53'417.3
2018-Feb-14 19:54N 49°13' W 123°49'819.3
2018-Feb-14 19:31N 49°11' W 123°38'1019.4
2018-Feb-14 19:00N 49°06' W 123°25'918.8
2018-Feb-14 18:30N 49°01' W 123°13'3 6.5
2018-Feb-14 18:01N 49°00' W 123°08'2 5.0
2018-Feb-14 17:30N 48°60' W 123°12'1019.1
2018-Feb-14 17:00N 49°04' W 123°25'1019.6
2018-Feb-14 16:29N 49°10' W 123°38'1017.9
2018-Feb-14 15:55N 49°12' W 123°53'3 3.0
2018-Feb-14 14:53N 49°13' W 123°49'819.0
2018-Feb-14 14:28N 49°10' W 123°37'919.0
2018-Feb-14 14:00N 49°06' W 123°25'918.6
2018-Feb-14 13:30N 49°01' W 123°14'4 7.5
2018-Feb-14 13:00N 49°00' W 123°08'0 0.0
2018-Feb-14 12:31N 49°00' W 123°08'0 0.0
2018-Feb-14 11:59N 49°00' W 123°08'0 0.0
2018-Feb-14 11:29N 49°00' W 123°08'0 0.0
2018-Feb-14 10:53N 49°00' W 123°08'0 0.0
2018-Feb-14 10:29N 49°00' W 123°08'0 0.0
2018-Feb-14 09:59N 49°00' W 123°08'0 0.0
2018-Feb-14 09:29N 49°00' W 123°08'0 0.0
2018-Feb-14 08:59N 49°00' W 123°08'3 7.0
2018-Feb-14 08:30N 49°00' W 123°13'919.0
2018-Feb-14 08:00N 49°04' W 123°26'918.9
2018-Feb-14 07:31N 49°10' W 123°38'1017.7
2018-Feb-14 06:56N 49°12' W 123°53'2 3.0
2018-Feb-14 06:14N 49°10' W 123°53'415.6
2018-Feb-14 05:58N 49°13' W 123°49'918.0
2018-Feb-14 05:30N 49°10' W 123°37'918.2
2018-Feb-14 05:00N 49°06' W 123°25'918.2
2018-Feb-14 04:30N 49°01' W 123°13'3 7.0
2018-Feb-14 04:00N 49°00' W 123°08'3 5.3
2018-Feb-14 03:30N 48°60' W 123°12'1019.7
2018-Feb-14 03:00N 49°04' W 123°25'1019.6
2018-Feb-14 02:30N 49°10' W 123°38'8 4.8
2018-Feb-14 00:55N 49°13' W 123°48'818.7
2018-Feb-14 00:30N 49°10' W 123°37'918.9
2018-Feb-14 00:00N 49°06' W 123°24'918.1
2018-Feb-13 23:31N 49°01' W 123°13'3 6.7
2018-Feb-13 23:00N 49°00' W 123°08'3 6.1
2018-Feb-13 22:30N 48°60' W 123°13'918.9
2018-Feb-13 22:00N 49°04' W 123°25'1019.4
2018-Feb-13 21:29N 49°10' W 123°38'10 7.2
2018-Feb-13 20:05N 49°12' W 123°53'318.2
2018-Feb-13 19:54N 49°13' W 123°49'818.9
2018-Feb-13 19:28N 49°10' W 123°38'919.0
2018-Feb-13 19:00N 49°06' W 123°26'918.7
2018-Feb-13 18:30N 49°01' W 123°14'4 7.8
2018-Feb-13 18:00N 49°00' W 123°08'3 5.1
2018-Feb-13 17:30N 48°60' W 123°12'1019.4
2018-Feb-13 17:00N 49°04' W 123°25'1019.8
2018-Feb-13 16:29N 49°10' W 123°38'1018.5
2018-Feb-13 15:57N 49°12' W 123°53'2 5.0
2018-Feb-13 15:29N 49°10' W 123°53'5 7.7
2018-Feb-13 14:54N 49°13' W 123°49'819.0
2018-Feb-13 14:28N 49°10' W 123°37'919.2
2018-Feb-13 14:00N 49°07' W 123°25'919.1
2018-Feb-13 13:30N 49°00' W 123°14'4 8.6
2018-Feb-13 13:00N 49°00' W 123°08'0 0.0
2018-Feb-13 12:30N 49°00' W 123°08'0 0.0
2018-Feb-13 11:57N 49°00' W 123°08'0 0.0
2018-Feb-13 11:27N 49°00' W 123°08'0 0.0
2018-Feb-13 10:57N 49°00' W 123°08'0 0.0
2018-Feb-13 10:27N 49°00' W 123°08'0 0.0
2018-Feb-13 09:57N 49°00' W 123°08'0 0.0
2018-Feb-13 09:27N 49°00' W 123°08'0 0.0
2018-Feb-13 08:58N 49°00' W 123°08'3 6.1
2018-Feb-13 08:30N 48°60' W 123°12'1019.4
2018-Feb-13 08:00N 49°04' W 123°25'1119.9
2018-Feb-13 07:28N 49°10' W 123°39'10 7.3
2018-Feb-13 06:09N 49°11' W 123°53'916.3
2018-Feb-13 05:36N 49°11' W 123°40'218.5
2018-Feb-13 05:30N 49°10' W 123°38'918.5
2018-Feb-13 05:00N 49°06' W 123°25'918.5
2018-Feb-13 04:31N 49°01' W 123°13'4 7.3
2018-Feb-13 04:00N 49°00' W 123°08'3 6.0
2018-Feb-13 03:30N 48°60' W 123°12'1018.9
2018-Feb-13 03:00N 49°04' W 123°25'1019.5
2018-Feb-13 02:30N 49°10' W 123°37'8 4.6
2018-Feb-13 00:49N 49°13' W 123°48'619.4
2018-Feb-13 00:30N 49°11' W 123°39'1019.7
2018-Feb-13 00:00N 49°06' W 123°26'1019.5
2018-Feb-12 23:30N 49°01' W 123°13'4 7.1
2018-Feb-12 23:00N 49°00' W 123°08'2 4.2
2018-Feb-12 22:30N 49°00' W 123°11'1019.5
2018-Feb-12 22:00N 49°04' W 123°25'1019.7
2018-Feb-12 21:30N 49°09' W 123°38'8 4.9
2018-Feb-12 19:51N 49°13' W 123°48'718.6
2018-Feb-12 19:30N 49°11' W 123°39'918.8
2018-Feb-12 19:00N 49°06' W 123°26'918.8
2018-Feb-12 18:30N 49°01' W 123°14'4 8.3
2018-Feb-12 18:00N 49°00' W 123°08'3 5.4
2018-Feb-12 17:31N 49°00' W 123°12'918.5
2018-Feb-12 17:00N 49°03' W 123°25'1019.5
2018-Feb-12 16:30N 49°09' W 123°37'1018.4
2018-Feb-12 15:57N 49°12' W 123°52'2 2.7
2018-Feb-12 15:11N 49°10' W 123°53'415.2
2018-Feb-12 14:54N 49°13' W 123°48'717.9
2018-Feb-12 14:30N 49°10' W 123°38'918.1
2018-Feb-12 14:00N 49°06' W 123°26'918.0
2018-Feb-12 13:30N 49°01' W 123°14'4 8.5
2018-Feb-12 13:00N 49°00' W 123°08'0 0.0
2018-Feb-12 12:26N 49°00' W 123°08'0 0.0
2018-Feb-12 11:56N 49°00' W 123°08'0 0.0
2018-Feb-12 11:26N 49°00' W 123°08'0 0.0
2018-Feb-12 10:56N 49°00' W 123°08'0 0.0
2018-Feb-12 10:26N 49°00' W 123°08'0 0.0
2018-Feb-12 09:56N 49°00' W 123°08'0 0.0
2018-Feb-12 09:26N 49°00' W 123°08'0 0.0
2018-Feb-12 08:56N 49°00' W 123°08'3 6.6
2018-Feb-12 08:30N 48°60' W 123°12'918.9
2018-Feb-12 08:01N 49°04' W 123°25'1019.2
2018-Feb-12 07:30N 49°09' W 123°37'1018.9
2018-Feb-12 06:58N 49°12' W 123°52'1 1.7
2018-Feb-12 06:12N 49°11' W 123°53'416.0
2018-Feb-12 05:57N 49°13' W 123°48'818.1
2018-Feb-12 05:30N 49°10' W 123°37'918.3
2018-Feb-12 05:01N 49°06' W 123°25'918.2
2018-Feb-12 04:31N 49°01' W 123°13'3 6.5
2018-Feb-12 04:00N 49°00' W 123°08'3 5.9
2018-Feb-12 03:30N 48°60' W 123°12'1019.0
2018-Feb-12 03:00N 49°04' W 123°25'1019.1
2018-Feb-12 02:29N 49°09' W 123°38'10 7.4
2018-Feb-12 01:06N 49°11' W 123°53'417.6
2018-Feb-12 00:52N 49°13' W 123°48'719.4
2018-Feb-12 00:30N 49°10' W 123°38'1019.4
2018-Feb-12 00:00N 49°06' W 123°25'918.9
2018-Feb-11 23:30N 49°01' W 123°13'3 6.3
2018-Feb-11 23:01N 49°00' W 123°08'2 4.8
2018-Feb-11 22:31N 49°00' W 123°12'1019.2
2018-Feb-11 22:00N 49°04' W 123°25'1019.1
2018-Feb-11 21:30N 49°09' W 123°37'1017.7
2018-Feb-11 20:55N 49°12' W 123°53'2 3.2
2018-Feb-11 20:12N 49°10' W 123°53'515.6
2018-Feb-11 19:53N 49°13' W 123°48'718.7
2018-Feb-11 19:30N 49°11' W 123°38'1018.7
2018-Feb-11 18:59N 49°08' W 123°24'918.3
2018-Feb-11 18:31N 49°01' W 123°15'4 8.8
2018-Feb-11 18:00N 49°00' W 123°08'0 0.0
2018-Feb-11 17:30N 49°00' W 123°08'0 0.0
2018-Feb-11 16:56N 49°00' W 123°08'0 0.0
2018-Feb-11 16:26N 49°00' W 123°08'0 0.0
2018-Feb-11 15:56N 49°00' W 123°08'0 0.0
2018-Feb-11 15:26N 49°00' W 123°08'0 0.0
2018-Feb-11 14:59N 49°00' W 123°08'0 0.0
2018-Feb-11 14:20N 49°00' W 123°08'0 0.0
2018-Feb-11 13:56N 49°00' W 123°08'0 0.0
2018-Feb-11 13:29N 49°00' W 123°08'0 0.0
2018-Feb-11 12:56N 49°00' W 123°08'0 0.0
2018-Feb-11 12:26N 49°00' W 123°08'0 0.0
2018-Feb-11 11:59N 49°00' W 123°08'0 0.0
2018-Feb-11 11:29N 49°00' W 123°08'0 0.0
2018-Feb-11 10:59N 49°00' W 123°08'0 0.0
2018-Feb-11 10:29N 49°00' W 123°08'0 0.0
2018-Feb-11 09:59N 49°00' W 123°08'0 0.0
2018-Feb-11 09:29N 49°00' W 123°08'0 0.0
2018-Feb-11 08:59N 49°00' W 123°08'0 0.0
2018-Feb-11 08:29N 49°00' W 123°08'0 0.0
2018-Feb-11 07:59N 49°00' W 123°08'0 0.0
2018-Feb-11 07:29N 49°00' W 123°08'0 0.0
2018-Feb-11 06:44N 49°00' W 123°08'0 0.0
2018-Feb-11 06:26N 49°00' W 123°08'0 0.0
2018-Feb-11 05:56N 49°00' W 123°08'0 0.0
2018-Feb-11 05:26N 49°00' W 123°08'0 0.0
2018-Feb-11 04:59N 49°00' W 123°08'0 0.0
2018-Feb-11 04:23N 49°00' W 123°08'0 0.0
2018-Feb-11 03:57N 49°00' W 123°08'3 6.3
2018-Feb-11 03:30N 48°60' W 123°12'1019.2
2018-Feb-11 03:00N 49°04' W 123°25'1019.5
2018-Feb-11 02:28N 49°10' W 123°38'10 6.8
2018-Feb-11 01:03N 49°12' W 123°53'417.8
2018-Feb-11 00:51N 49°13' W 123°48'719.0
2018-Feb-11 00:30N 49°10' W 123°39'919.1
2018-Feb-11 00:00N 49°06' W 123°26'1019.1
2018-Feb-10 23:30N 49°01' W 123°13'4 7.3
2018-Feb-10 23:00N 49°00' W 123°08'3 5.9
2018-Feb-10 22:30N 49°00' W 123°12'1019.6
2018-Feb-10 22:00N 49°03' W 123°27'  
Track history (hours):
 
Tides and Currents Weather Stations Pressure Air Temp Water Temp Dewpoint Dewpoint Depression Visibility Wind Speed Wind Dir Waves Ship Positions

Queen Of Alberni

Last reported at 2018-Feb-20 21:30 UTC. Time now 2018-Feb-20 21:55 UTC.
Position N 49°09' W 123°37'.

Length 134 m; draft 5.8 m.

Type: Passenger vessel. MMSI: 316001245.

Date/timePositionNaut miles runAvg speedWind from/ knotsBaromVisibWave heightAir tempDewpointWater temp
2018-Feb-20 21:30N 49°09' W 123°37'10 6.6
2018-Feb-20 19:58N 49°13' W 123°52'918.4
2018-Feb-20 19:29N 49°10' W 123°38'919.2
2018-Feb-20 18:59N 49°06' W 123°26'919.1
2018-Feb-20 18:30N 49°01' W 123°14'4 7.6
2018-Feb-20 18:00N 49°00' W 123°08'3 5.2
2018-Feb-20 17:30N 49°00' W 123°12'1019.0
2018-Feb-20 17:00N 49°04' W 123°25'1019.3
2018-Feb-20 16:30N 49°10' W 123°37'1018.9
2018-Feb-20 16:00N 49°13' W 123°51'1 1.5
2018-Feb-20 15:08N 49°12' W 123°52'320.0
2018-Feb-20 14:59N 49°13' W 123°48'1019.1
2018-Feb-20 14:28N 49°09' W 123°35'1019.4
2018-Feb-20 13:59N 49°05' W 123°22'919.2
2018-Feb-20 13:30N 49°00' W 123°10'1 2.5
2018-Feb-20 13:01N 49°00' W 123°08'0 0.0
2018-Feb-20 12:31N 49°00' W 123°08'0 0.0
2018-Feb-20 11:57N 49°00' W 123°08'0 0.0
2018-Feb-20 11:21N 49°00' W 123°08'0 0.0
2018-Feb-20 10:57N 49°00' W 123°08'0 0.0
2018-Feb-20 10:21N 49°00' W 123°08'0 0.0
2018-Feb-20 09:57N 49°00' W 123°08'0 0.0
2018-Feb-20 09:27N 49°00' W 123°08'0 0.0
2018-Feb-20 08:48N 49°00' W 123°08'2 5.8
2018-Feb-20 08:30N 48°60' W 123°10'919.2
2018-Feb-20 08:01N 49°03' W 123°24'1019.7
2018-Feb-20 07:29N 49°09' W 123°36'919.1
2018-Feb-20 07:00N 49°13' W 123°50'4 7.5
2018-Feb-20 06:28N 49°10' W 123°53'4 8.4
2018-Feb-20 05:57N 49°13' W 123°49'818.6
2018-Feb-20 05:30N 49°10' W 123°37'1018.9
2018-Feb-20 05:00N 49°06' W 123°24'918.9
2018-Feb-20 04:30N 49°01' W 123°12'3 5.6
2018-Feb-20 04:00N 49°00' W 123°08'4 8.0
2018-Feb-20 03:31N 49°00' W 123°14'1018.9
2018-Feb-20 02:58N 49°05' W 123°28'919.2
2018-Feb-20 02:31N 49°10' W 123°39'916.0
2018-Feb-20 01:56N 49°12' W 123°52'0 0.1
2018-Feb-20 01:08N 49°12' W 123°52'414.4
2018-Feb-20 00:52N 49°13' W 123°47'718.6
2018-Feb-20 00:30N 49°10' W 123°37'1018.6
2018-Feb-20 00:00N 49°06' W 123°24'918.5
2018-Feb-19 23:30N 49°01' W 123°13'3 6.2
2018-Feb-19 22:59N 49°00' W 123°08'3 5.5
2018-Feb-19 22:29N 48°60' W 123°12'919.1
2018-Feb-19 22:00N 49°03' W 123°25'1019.9
2018-Feb-19 21:30N 49°09' W 123°37'11 7.6
2018-Feb-19 20:06N 49°11' W 123°53'415.5
2018-Feb-19 19:50N 49°13' W 123°48'819.4
2018-Feb-19 19:26N 49°10' W 123°37'819.2
2018-Feb-19 19:00N 49°06' W 123°25'1019.1
2018-Feb-19 18:30N 49°01' W 123°14'4 7.3
2018-Feb-19 18:00N 49°00' W 123°08'3 5.0
2018-Feb-19 17:30N 48°60' W 123°12'919.3
2018-Feb-19 17:01N 49°04' W 123°25'1019.2
2018-Feb-19 16:30N 49°09' W 123°37'11 7.4
2018-Feb-19 15:05N 49°10' W 123°53'218.9
2018-Feb-19 14:58N 49°12' W 123°52'918.6
2018-Feb-19 14:30N 49°11' W 123°39'1019.8
2018-Feb-19 14:00N 49°06' W 123°25'1019.5
2018-Feb-19 13:30N 49°01' W 123°13'4 6.9
2018-Feb-19 13:00N 49°00' W 123°08'0 0.0
2018-Feb-19 12:30N 49°00' W 123°08'0 0.0
2018-Feb-19 11:47N 49°00' W 123°08'0 0.0
2018-Feb-19 11:29N 49°00' W 123°08'0 0.0
2018-Feb-19 10:54N 49°00' W 123°08'0 0.0
2018-Feb-19 10:23N 49°00' W 123°08'0 0.0
2018-Feb-19 09:54N 49°00' W 123°08'0 0.0
2018-Feb-19 09:18N 49°00' W 123°08'0 0.0
2018-Feb-19 08:59N 49°00' W 123°08'1 1.2
2018-Feb-19 08:30N 49°00' W 123°09'1019.8
2018-Feb-19 08:00N 49°03' W 123°23'1020.0
2018-Feb-19 07:30N 49°09' W 123°36'12 8.7
2018-Feb-19 06:10N 49°10' W 123°53'415.9
2018-Feb-19 05:55N 49°13' W 123°49'818.2
2018-Feb-19 05:27N 49°11' W 123°37'818.6
2018-Feb-19 05:00N 49°06' W 123°27'918.6
2018-Feb-19 04:30N 49°01' W 123°14'4 8.6
2018-Feb-19 04:00N 49°00' W 123°08'3 5.4
2018-Feb-19 03:30N 49°00' W 123°12'918.7
2018-Feb-19 03:00N 49°04' W 123°25'2010.3
2018-Feb-19 01:05N 49°11' W 123°53'417.1
2018-Feb-19 00:49N 49°13' W 123°47'720.8
2018-Feb-19 00:30N 49°10' W 123°37'1020.3
2018-Feb-19 00:00N 49°05' W 123°24'1020.2
2018-Feb-18 23:30N 49°00' W 123°10'1 2.9
2018-Feb-18 23:00N 49°00' W 123°08'613.0
2018-Feb-18 22:30N 49°01' W 123°18'612.4
2018-Feb-18 22:00N 49°05' W 123°25'918.5
2018-Feb-18 21:31N 49°09' W 123°38'10 7.6
2018-Feb-18 20:08N 49°11' W 123°53'317.9
2018-Feb-18 19:57N 49°13' W 123°49'918.8
2018-Feb-18 19:30N 49°10' W 123°37'1019.1
2018-Feb-18 18:58N 49°05' W 123°24'919.0
2018-Feb-18 18:30N 48°60' W 123°13'3 6.2
2018-Feb-18 17:59N 49°00' W 123°08'0 0.0
2018-Feb-18 17:30N 49°00' W 123°08'0 0.0
2018-Feb-18 16:42N 49°00' W 123°08'0 0.0
2018-Feb-18 16:12N 49°00' W 123°08'0 0.0
2018-Feb-18 15:57N 49°00' W 123°08'0 0.0
2018-Feb-18 15:24N 49°00' W 123°08'0 0.0
2018-Feb-18 14:48N 49°00' W 123°08'0 0.0
2018-Feb-18 14:27N 49°00' W 123°08'0 0.0
2018-Feb-18 14:00N 49°00' W 123°08'0 0.0
2018-Feb-18 13:30N 49°00' W 123°08'0 0.0
2018-Feb-18 12:57N 49°00' W 123°08'0 0.0
2018-Feb-18 12:30N 49°00' W 123°08'0 0.0
2018-Feb-18 12:00N 49°00' W 123°08'0 0.0
2018-Feb-18 11:30N 49°00' W 123°08'0 0.0
2018-Feb-18 11:00N 49°00' W 123°08'0 0.0
2018-Feb-18 10:30N 49°00' W 123°08'0 0.0
2018-Feb-18 10:00N 49°00' W 123°08'0 0.0
2018-Feb-18 09:27N 49°00' W 123°08'0 0.0
2018-Feb-18 09:00N 49°00' W 123°08'0 0.0
2018-Feb-18 08:27N 49°00' W 123°08'0 0.0
2018-Feb-18 08:00N 49°00' W 123°08'0 0.0
2018-Feb-18 07:27N 49°00' W 123°08'0 0.0
2018-Feb-18 07:00N 49°00' W 123°08'0 0.0
2018-Feb-18 06:27N 49°00' W 123°08'0 0.0
2018-Feb-18 06:00N 49°00' W 123°08'0 0.0
2018-Feb-18 05:03N 49°00' W 123°08'0 0.0
2018-Feb-18 04:51N 49°00' W 123°08'0 0.0
2018-Feb-18 04:15N 49°00' W 123°08'0 0.0
2018-Feb-18 03:57N 49°00' W 123°08'3 6.2
2018-Feb-18 03:31N 48°60' W 123°12'1019.9
2018-Feb-18 03:00N 49°04' W 123°26'1020.1
2018-Feb-18 02:29N 49°10' W 123°39'918.7
2018-Feb-18 02:00N 49°12' W 123°53'2 2.2
2018-Feb-18 01:14N 49°10' W 123°53'313.1
2018-Feb-18 01:00N 49°13' W 123°50'1019.1
2018-Feb-18 00:30N 49°10' W 123°36'1019.5
2018-Feb-18 00:01N 49°05' W 123°23'1019.3
2018-Feb-17 23:31N 49°00' W 123°10'2 3.4
2018-Feb-17 23:00N 49°00' W 123°08'3 5.1
2018-Feb-17 22:30N 49°00' W 123°12'918.5
2018-Feb-17 22:00N 49°04' W 123°25'1019.1
2018-Feb-17 21:27N 49°10' W 123°38'1017.6
2018-Feb-17 20:53N 49°12' W 123°53'2 3.0
2018-Feb-17 20:10N 49°10' W 123°53'515.5
2018-Feb-17 19:52N 49°13' W 123°48'818.7
2018-Feb-17 19:27N 49°11' W 123°37'818.8
2018-Feb-17 19:00N 49°06' W 123°26'918.7
2018-Feb-17 18:30N 49°01' W 123°14'4 8.4
2018-Feb-17 18:00N 49°00' W 123°08'4 7.6
2018-Feb-17 17:30N 48°60' W 123°14'918.2
2018-Feb-17 17:00N 49°04' W 123°26'1018.8
2018-Feb-17 16:28N 49°10' W 123°39'10 7.5
2018-Feb-17 15:10N 49°10' W 123°53'415.7
2018-Feb-17 14:53N 49°13' W 123°48'718.5
2018-Feb-17 14:29N 49°11' W 123°37'918.6
2018-Feb-17 14:00N 49°06' W 123°25'918.6
2018-Feb-17 13:31N 49°01' W 123°14'4 7.7
2018-Feb-17 13:00N 49°00' W 123°08'0 0.0
2018-Feb-17 12:30N 49°00' W 123°08'0 0.0
2018-Feb-17 11:59N 49°00' W 123°08'0 0.0
2018-Feb-17 11:29N 49°00' W 123°08'0 0.0
2018-Feb-17 10:59N 49°00' W 123°08'0 0.0
2018-Feb-17 10:29N 49°00' W 123°08'0 0.0
2018-Feb-17 09:59N 49°00' W 123°08'0 0.0
2018-Feb-17 09:26N 49°00' W 123°08'0 0.0
2018-Feb-17 08:41N 49°00' W 123°08'1 3.0
2018-Feb-17 08:30N 49°00' W 123°09'1019.6
2018-Feb-17 08:00N 49°03' W 123°23'1020.0
2018-Feb-17 07:30N 49°09' W 123°36'1218.9
2018-Feb-17 06:53N 49°12' W 123°53'2 2.2
2018-Feb-17 06:09N 49°10' W 123°53'416.2
2018-Feb-17 05:53N 49°13' W 123°48'818.9
2018-Feb-17 05:28N 49°10' W 123°37'919.0
2018-Feb-17 04:59N 49°06' W 123°25'918.5
2018-Feb-17 04:30N 49°01' W 123°13'4 7.4
2018-Feb-17 04:00N 49°00' W 123°08'2 4.8
2018-Feb-17 03:31N 48°60' W 123°12'1020.1
2018-Feb-17 03:00N 49°04' W 123°26'1220.1
2018-Feb-17 02:25N 49°11' W 123°40'6 4.7
2018-Feb-17 01:03N 49°13' W 123°50'119.1
2018-Feb-17 00:59N 49°13' W 123°48'919.2
2018-Feb-17 00:30N 49°09' W 123°35'1019.3
2018-Feb-17 00:00N 49°05' W 123°22'1018.8
2018-Feb-16 23:30N 49°00' W 123°09'1 1.5
2018-Feb-16 22:59N 49°00' W 123°08'3 6.0
2018-Feb-16 22:31N 48°60' W 123°12'1018.9
2018-Feb-16 22:00N 49°03' W 123°26'1019.5
2018-Feb-16 21:30N 49°09' W 123°38'10 7.5
2018-Feb-16 20:08N 49°10' W 123°53'218.0
2018-Feb-16 20:00N 49°12' W 123°52'918.1
2018-Feb-16 19:30N 49°11' W 123°38'919.1
2018-Feb-16 19:00N 49°06' W 123°26'919.0
2018-Feb-16 18:30N 49°01' W 123°14'4 7.7
2018-Feb-16 18:00N 49°00' W 123°08'2 4.6
2018-Feb-16 17:30N 48°60' W 123°11'918.6
2018-Feb-16 17:00N 49°03' W 123°25'1019.1
2018-Feb-16 16:30N 49°09' W 123°36'1117.8
2018-Feb-16 15:53N 49°12' W 123°53'2 2.8
2018-Feb-16 15:09N 49°10' W 123°53'515.8
2018-Feb-16 14:51N 49°13' W 123°48'719.9
2018-Feb-16 14:29N 49°11' W 123°38'919.9
2018-Feb-16 14:00N 49°06' W 123°25'1019.8
2018-Feb-16 13:30N 49°01' W 123°12'3 5.7
2018-Feb-16 13:00N 49°00' W 123°08'0 0.0
2018-Feb-16 12:30N 49°00' W 123°08'0 0.0
2018-Feb-16 12:00N 49°00' W 123°08'0 0.0
2018-Feb-16 11:30N 49°00' W 123°08'0 0.0
2018-Feb-16 11:00N 49°00' W 123°08'0 0.0
2018-Feb-16 10:30N 49°00' W 123°08'0 0.0
2018-Feb-16 09:54N 49°00' W 123°08'0 0.0
2018-Feb-16 09:30N 49°00' W 123°08'0 0.0
2018-Feb-16 08:57N 49°00' W 123°08'2 3.5
2018-Feb-16 08:30N 48°60' W 123°10'1019.9
2018-Feb-16 08:00N 49°03' W 123°24'1119.7
2018-Feb-16 07:28N 49°09' W 123°37'10 8.1
2018-Feb-16 06:11N 49°10' W 123°53'416.6
2018-Feb-16 05:55N 49°13' W 123°49'818.3
2018-Feb-16 05:29N 49°10' W 123°37'918.7
2018-Feb-16 05:01N 49°06' W 123°25'918.5
2018-Feb-16 04:30N 49°01' W 123°14'4 7.8
2018-Feb-16 04:00N 49°00' W 123°08'4 7.8
2018-Feb-16 03:30N 48°60' W 123°14'918.2
2018-Feb-16 03:00N 49°04' W 123°26'1018.6
2018-Feb-16 02:29N 49°10' W 123°38'10 6.9
2018-Feb-16 01:04N 49°12' W 123°53'318.6
2018-Feb-16 00:54N 49°13' W 123°48'818.7
2018-Feb-16 00:28N 49°10' W 123°37'918.7
2018-Feb-16 00:00N 49°06' W 123°25'918.5
2018-Feb-15 23:30N 49°01' W 123°13'3 7.0
2018-Feb-15 23:00N 49°00' W 123°08'2 4.7
2018-Feb-15 22:30N 48°60' W 123°11'1018.8
2018-Feb-15 22:00N 49°03' W 123°25'1019.2
2018-Feb-15 21:30N 49°09' W 123°37'11 7.1
2018-Feb-15 20:01N 49°12' W 123°52'319.0
2018-Feb-15 19:52N 49°13' W 123°48'718.9
2018-Feb-15 19:29N 49°10' W 123°39'919.1
2018-Feb-15 19:00N 49°06' W 123°26'918.7
2018-Feb-15 18:30N 49°01' W 123°14'4 7.7
2018-Feb-15 18:00N 49°00' W 123°08'3 6.1
2018-Feb-15 17:30N 48°59' W 123°13'1019.3
2018-Feb-15 17:00N 49°04' W 123°26'918.9
2018-Feb-15 16:30N 49°09' W 123°37'11 7.6
2018-Feb-15 15:06N 49°11' W 123°53'418.2
2018-Feb-15 14:54N 49°13' W 123°49'819.5
2018-Feb-15 14:30N 49°11' W 123°37'919.2
2018-Feb-15 14:00N 49°06' W 123°25'1019.4
2018-Feb-15 13:30N 49°00' W 123°13'3 6.2
2018-Feb-15 13:00N 49°00' W 123°08'0 0.0
2018-Feb-15 12:30N 49°00' W 123°08'0 0.0
2018-Feb-15 11:55N 49°00' W 123°08'0 0.0
2018-Feb-15 11:25N 49°00' W 123°08'0 0.0
2018-Feb-15 10:55N 49°00' W 123°08'0 0.0
2018-Feb-15 10:25N 49°00' W 123°08'0 0.0
2018-Feb-15 09:55N 49°00' W 123°08'0 0.0
2018-Feb-15 09:19N 49°00' W 123°08'0 0.0
2018-Feb-15 08:55N 49°00' W 123°08'2 5.0
2018-Feb-15 08:30N 48°59' W 123°11'919.1
2018-Feb-15 08:01N 49°03' W 123°24'1019.7
2018-Feb-15 07:30N 49°09' W 123°36'11 8.2
2018-Feb-15 06:08N 49°12' W 123°53'417.5
2018-Feb-15 05:54N 49°13' W 123°48'818.3
2018-Feb-15 05:27N 49°10' W 123°36'818.3
2018-Feb-15 05:00N 49°06' W 123°25'918.3
2018-Feb-15 04:30N 49°01' W 123°14'4 7.4
2018-Feb-15 04:00N 49°00' W 123°08'3 5.7
2018-Feb-15 03:30N 48°60' W 123°12'918.5
2018-Feb-15 03:01N 49°04' W 123°25'1019.1
2018-Feb-15 02:31N 49°09' W 123°37'11 7.2
2018-Feb-15 01:02N 49°12' W 123°53'818.2
2018-Feb-15 00:34N 49°11' W 123°40'219.7
2018-Feb-15 00:29N 49°10' W 123°37'919.7
2018-Feb-15 00:00N 49°06' W 123°25'918.8
2018-Feb-14 23:30N 49°01' W 123°13'3 6.3
2018-Feb-14 23:00N 49°00' W 123°08'2 4.9
2018-Feb-14 22:30N 48°60' W 123°12'1018.9
2018-Feb-14 22:00N 49°04' W 123°25'1119.3
2018-Feb-14 21:26N 49°10' W 123°39'10 7.4
2018-Feb-14 20:08N 49°10' W 123°53'417.3
2018-Feb-14 19:54N 49°13' W 123°49'819.3
2018-Feb-14 19:31N 49°11' W 123°38'1019.4
2018-Feb-14 19:00N 49°06' W 123°25'918.8
2018-Feb-14 18:30N 49°01' W 123°13'3 6.5
2018-Feb-14 18:01N 49°00' W 123°08'2 5.0
2018-Feb-14 17:30N 48°60' W 123°12'1019.1
2018-Feb-14 17:00N 49°04' W 123°25'1019.6
2018-Feb-14 16:29N 49°10' W 123°38'1017.9
2018-Feb-14 15:55N 49°12' W 123°53'3 3.0
2018-Feb-14 14:53N 49°13' W 123°49'819.0
2018-Feb-14 14:28N 49°10' W 123°37'919.0
2018-Feb-14 14:00N 49°06' W 123°25'918.6
2018-Feb-14 13:30N 49°01' W 123°14'4 7.5
2018-Feb-14 13:00N 49°00' W 123°08'0 0.0
2018-Feb-14 12:31N 49°00' W 123°08'0 0.0
2018-Feb-14 11:59N 49°00' W 123°08'0 0.0
2018-Feb-14 11:29N 49°00' W 123°08'0 0.0
2018-Feb-14 10:53N 49°00' W 123°08'0 0.0
2018-Feb-14 10:29N 49°00' W 123°08'0 0.0
2018-Feb-14 09:59N 49°00' W 123°08'0 0.0
2018-Feb-14 09:29N 49°00' W 123°08'0 0.0
2018-Feb-14 08:59N 49°00' W 123°08'3 7.0
2018-Feb-14 08:30N 49°00' W 123°13'919.0
2018-Feb-14 08:00N 49°04' W 123°26'918.9
2018-Feb-14 07:31N 49°10' W 123°38'1017.7
2018-Feb-14 06:56N 49°12' W 123°53'2 3.0
2018-Feb-14 06:14N 49°10' W 123°53'415.6
2018-Feb-14 05:58N 49°13' W 123°49'918.0
2018-Feb-14 05:30N 49°10' W 123°37'918.2
2018-Feb-14 05:00N 49°06' W 123°25'918.2
2018-Feb-14 04:30N 49°01' W 123°13'3 7.0
2018-Feb-14 04:00N 49°00' W 123°08'3 5.3
2018-Feb-14 03:30N 48°60' W 123°12'1019.7
2018-Feb-14 03:00N 49°04' W 123°25'1019.6
2018-Feb-14 02:30N 49°10' W 123°38'8 4.8
2018-Feb-14 00:55N 49°13' W 123°48'818.7
2018-Feb-14 00:30N 49°10' W 123°37'918.9
2018-Feb-14 00:00N 49°06' W 123°24'918.1
2018-Feb-13 23:31N 49°01' W 123°13'3 6.7
2018-Feb-13 23:00N 49°00' W 123°08'3 6.1
2018-Feb-13 22:30N 48°60' W 123°13'918.9
2018-Feb-13 22:00N 49°04' W 123°25'1019.4
2018-Feb-13 21:29N 49°10' W 123°38'10 7.2
2018-Feb-13 20:05N 49°12' W 123°53'318.2
2018-Feb-13 19:54N 49°13' W 123°49'818.9
2018-Feb-13 19:28N 49°10' W 123°38'919.0
2018-Feb-13 19:00N 49°06' W 123°26'918.7
2018-Feb-13 18:30N 49°01' W 123°14'4 7.8
2018-Feb-13 18:00N 49°00' W 123°08'3 5.1
2018-Feb-13 17:30N 48°60' W 123°12'1019.4
2018-Feb-13 17:00N 49°04' W 123°25'1019.8
2018-Feb-13 16:29N 49°10' W 123°38'1018.5
2018-Feb-13 15:57N 49°12' W 123°53'2 5.0
2018-Feb-13 15:29N 49°10' W 123°53'5 7.7
2018-Feb-13 14:54N 49°13' W 123°49'819.0
2018-Feb-13 14:28N 49°10' W 123°37'919.2
2018-Feb-13 14:00N 49°07' W 123°25'919.1
2018-Feb-13 13:30N 49°00' W 123°14'4 8.6
2018-Feb-13 13:00N 49°00' W 123°08'0 0.0
2018-Feb-13 12:30N 49°00' W 123°08'0 0.0
2018-Feb-13 11:57N 49°00' W 123°08'0 0.0
2018-Feb-13 11:27N 49°00' W 123°08'0 0.0
2018-Feb-13 10:57N 49°00' W 123°08'0 0.0
2018-Feb-13 10:27N 49°00' W 123°08'0 0.0
2018-Feb-13 09:57N 49°00' W 123°08'0 0.0
2018-Feb-13 09:27N 49°00' W 123°08'0 0.0
2018-Feb-13 08:58N 49°00' W 123°08'3 6.1
2018-Feb-13 08:30N 48°60' W 123°12'1019.4
2018-Feb-13 08:00N 49°04' W 123°25'1119.9
2018-Feb-13 07:28N 49°10' W 123°39'10 7.3
2018-Feb-13 06:09N 49°11' W 123°53'916.3
2018-Feb-13 05:36N 49°11' W 123°40'218.5
2018-Feb-13 05:30N 49°10' W 123°38'918.5
2018-Feb-13 05:00N 49°06' W 123°25'918.5
2018-Feb-13 04:31N 49°01' W 123°13'4 7.3
2018-Feb-13 04:00N 49°00' W 123°08'3 6.0
2018-Feb-13 03:30N 48°60' W 123°12'1018.9
2018-Feb-13 03:00N 49°04' W 123°25'1019.5
2018-Feb-13 02:30N 49°10' W 123°37'8 4.6
2018-Feb-13 00:49N 49°13' W 123°48'619.4
2018-Feb-13 00:30N 49°11' W 123°39'1019.7
2018-Feb-13 00:00N 49°06' W 123°26'1019.5
2018-Feb-12 23:30N 49°01' W 123°13'4 7.1
2018-Feb-12 23:00N 49°00' W 123°08'2 4.2
2018-Feb-12 22:30N 49°00' W 123°11'1019.5
2018-Feb-12 22:00N 49°04' W 123°25'1019.7
2018-Feb-12 21:30N 49°09' W 123°38'8 4.9
2018-Feb-12 19:51N 49°13' W 123°48'718.6
2018-Feb-12 19:30N 49°11' W 123°39'918.8
2018-Feb-12 19:00N 49°06' W 123°26'918.8
2018-Feb-12 18:30N 49°01' W 123°14'4 8.3
2018-Feb-12 18:00N 49°00' W 123°08'3 5.4
2018-Feb-12 17:31N 49°00' W 123°12'918.5
2018-Feb-12 17:00N 49°03' W 123°25'1019.5
2018-Feb-12 16:30N 49°09' W 123°37'1018.4
2018-Feb-12 15:57N 49°12' W 123°52'2 2.7
2018-Feb-12 15:11N 49°10' W 123°53'415.2
2018-Feb-12 14:54N 49°13' W 123°48'717.9
2018-Feb-12 14:30N 49°10' W 123°38'918.1
2018-Feb-12 14:00N 49°06' W 123°26'918.0
2018-Feb-12 13:30N 49°01' W 123°14'4 8.5
2018-Feb-12 13:00N 49°00' W 123°08'0 0.0
2018-Feb-12 12:26N 49°00' W 123°08'0 0.0
2018-Feb-12 11:56N 49°00' W 123°08'0 0.0
2018-Feb-12 11:26N 49°00' W 123°08'0 0.0
2018-Feb-12 10:56N 49°00' W 123°08'0 0.0
2018-Feb-12 10:26N 49°00' W 123°08'0 0.0
2018-Feb-12 09:56N 49°00' W 123°08'0 0.0
2018-Feb-12 09:26N 49°00' W 123°08'0 0.0
2018-Feb-12 08:56N 49°00' W 123°08'3 6.6
2018-Feb-12 08:30N 48°60' W 123°12'918.9
2018-Feb-12 08:01N 49°04' W 123°25'1019.2
2018-Feb-12 07:30N 49°09' W 123°37'1018.9
2018-Feb-12 06:58N 49°12' W 123°52'1 1.7
2018-Feb-12 06:12N 49°11' W 123°53'416.0
2018-Feb-12 05:57N 49°13' W 123°48'818.1
2018-Feb-12 05:30N 49°10' W 123°37'918.3
2018-Feb-12 05:01N 49°06' W 123°25'918.2
2018-Feb-12 04:31N 49°01' W 123°13'3 6.5
2018-Feb-12 04:00N 49°00' W 123°08'3 5.9
2018-Feb-12 03:30N 48°60' W 123°12'1019.0
2018-Feb-12 03:00N 49°04' W 123°25'1019.1
2018-Feb-12 02:29N 49°09' W 123°38'10 7.4
2018-Feb-12 01:06N 49°11' W 123°53'417.6
2018-Feb-12 00:52N 49°13' W 123°48'719.4
2018-Feb-12 00:30N 49°10' W 123°38'1019.4
2018-Feb-12 00:00N 49°06' W 123°25'918.9
2018-Feb-11 23:30N 49°01' W 123°13'3 6.3
2018-Feb-11 23:01N 49°00' W 123°08'2 4.8
2018-Feb-11 22:31N 49°00' W 123°12'1019.2
2018-Feb-11 22:00N 49°04' W 123°25'1019.1
2018-Feb-11 21:30N 49°09' W 123°37'1017.7
2018-Feb-11 20:55N 49°12' W 123°53'2 3.2
2018-Feb-11 20:12N 49°10' W 123°53'515.6
2018-Feb-11 19:53N 49°13' W 123°48'718.7
2018-Feb-11 19:30N 49°11' W 123°38'1018.7
2018-Feb-11 18:59N 49°08' W 123°24'918.3
2018-Feb-11 18:31N 49°01' W 123°15'4 8.8
2018-Feb-11 18:00N 49°00' W 123°08'0 0.0
2018-Feb-11 17:30N 49°00' W 123°08'0 0.0
2018-Feb-11 16:56N 49°00' W 123°08'0 0.0
2018-Feb-11 16:26N 49°00' W 123°08'0 0.0
2018-Feb-11 15:56N 49°00' W 123°08'0 0.0
2018-Feb-11 15:26N 49°00' W 123°08'0 0.0
2018-Feb-11 14:59N 49°00' W 123°08'0 0.0
2018-Feb-11 14:20N 49°00' W 123°08'0 0.0
2018-Feb-11 13:56N 49°00' W 123°08'0 0.0
2018-Feb-11 13:29N 49°00' W 123°08'0 0.0
2018-Feb-11 12:56N 49°00' W 123°08'0 0.0
2018-Feb-11 12:26N 49°00' W 123°08'0 0.0
2018-Feb-11 11:59N 49°00' W 123°08'0 0.0
2018-Feb-11 11:29N 49°00' W 123°08'0 0.0
2018-Feb-11 10:59N 49°00' W 123°08'0 0.0
2018-Feb-11 10:29N 49°00' W 123°08'0 0.0
2018-Feb-11 09:59N 49°00' W 123°08'0 0.0
2018-Feb-11 09:29N 49°00' W 123°08'0 0.0
2018-Feb-11 08:59N 49°00' W 123°08'0 0.0
2018-Feb-11 08:29N 49°00' W 123°08'0 0.0
2018-Feb-11 07:59N 49°00' W 123°08'0 0.0
2018-Feb-11 07:29N 49°00' W 123°08'0 0.0
2018-Feb-11 06:44N 49°00' W 123°08'0 0.0
2018-Feb-11 06:26N 49°00' W 123°08'0 0.0
2018-Feb-11 05:56N 49°00' W 123°08'0 0.0
2018-Feb-11 05:26N 49°00' W 123°08'0 0.0
2018-Feb-11 04:59N 49°00' W 123°08'0 0.0
2018-Feb-11 04:23N 49°00' W 123°08'0 0.0
2018-Feb-11 03:57N 49°00' W 123°08'3 6.3
2018-Feb-11 03:30N 48°60' W 123°12'1019.2
2018-Feb-11 03:00N 49°04' W 123°25'1019.5
2018-Feb-11 02:28N 49°10' W 123°38'10 6.8
2018-Feb-11 01:03N 49°12' W 123°53'417.8
2018-Feb-11 00:51N 49°13' W 123°48'719.0
2018-Feb-11 00:30N 49°10' W 123°39'919.1
2018-Feb-11 00:00N 49°06' W 123°26'1019.1
2018-Feb-10 23:30N 49°01' W 123°13'4 7.3
2018-Feb-10 23:00N 49°00' W 123°08'3 5.9
2018-Feb-10 22:30N 49°00' W 123°12'1019.6
2018-Feb-10 22:00N 49°03' W 123°27'  

Dump ship's entire track history